American Lake, Washington
Current Conditions -  °F | °C
As of 6:58 PM on Wednesday 22 Oct 2014 (Local Time) from KGRF Reporting Station
Drizzle Drizzle  
Wind Chill: 55°   Ceiling: 6500
Heat Index: 55°   Visibility: 10mi
Dew Point: 54°   Wind: 6mph
Humidity: 96%   Direction: 140°SE
Pressure: 29.58"   Gusts: NA
Location:  47.1451°N, 122.578°W
Report Text: KGRF 230158Z AUTO 14005KT 10SM DZ OVC065 13/12 A2958 RMK AO2 RAE0057DZB0057 SLP020 P0001 T01290122 $
Loading
Personal Weather Stations






























Interactive Weather Map
Tropical Storm Tracking
New forecast layout! Learn more

10-Day Weather Forecast

Advertisements
Track Severe Weather on mobile